sensor_id;sensor_type;location;lat;lon;timestamp;P1;durP1;ratioP1;P2;durP2;ratioP2
51358;SDS011;37448;51.588;7.248;2022-11-03T00:02:25;6.43;;;1.60;;
51358;SDS011;37448;51.588;7.248;2022-11-03T00:04:56;12.32;;;2.00;;
51358;SDS011;37448;51.588;7.248;2022-11-03T00:07:26;9.90;;;1.70;;
51358;SDS011;37448;51.588;7.248;2022-11-03T00:09:56;9.18;;;2.03;;
51358;SDS011;37448;51.588;7.248;2022-11-03T00:12:27;9.15;;;1.73;;
51358;SDS011;37448;51.588;7.248;2022-11-03T00:14:57;12.98;;;2.58;;
51358;SDS011;37448;51.588;7.248;2022-11-03T00:17:27;13.18;;;2.40;;
51358;SDS011;37448;51.588;7.248;2022-11-03T00:19:58;11.70;;;1.90;;
51358;SDS011;37448;51.588;7.248;2022-11-03T00:22:28;12.13;;;1.70;;
51358;SDS011;37448;51.588;7.248;2022-11-03T00:25:02;11.25;;;2.70;;
51358;SDS011;37448;51.588;7.248;2022-11-03T00:27:33;10.52;;;2.42;;
51358;SDS011;37448;51.588;7.248;2022-11-03T00:30:03;11.73;;;1.65;;
51358;SDS011;37448;51.588;7.248;2022-11-03T00:32:34;13.18;;;2.42;;
51358;SDS011;37448;51.588;7.248;2022-11-03T00:35:04;10.90;;;1.73;;
51358;SDS011;37448;51.588;7.248;2022-11-03T00:37:35;9.93;;;3.08;;
51358;SDS011;37448;51.588;7.248;2022-11-03T00:40:06;7.30;;;2.05;;
51358;SDS011;37448;51.588;7.248;2022-11-03T00:42:37;10.55;;;2.47;;
51358;SDS011;37448;51.588;7.248;2022-11-03T00:45:08;12.20;;;2.65;;
51358;SDS011;37448;51.588;7.248;2022-11-03T00:47:38;9.73;;;2.22;;
51358;SDS011;37448;51.588;7.248;2022-11-03T00:50:28;8.95;;;1.80;;
51358;SDS011;37448;51.588;7.248;2022-11-03T00:52:59;13.77;;;2.45;;
51358;SDS011;37448;51.588;7.248;2022-11-03T00:55:29;15.60;;;4.07;;
51358;SDS011;37448;51.588;7.248;2022-11-03T00:57:59;10.68;;;2.25;;
51358;SDS011;37448;51.588;7.248;2022-11-03T01:00:30;13.18;;;3.05;;
51358;SDS011;37448;51.588;7.248;2022-11-03T01:03:00;15.95;;;3.15;;
51358;SDS011;37448;51.588;7.248;2022-11-03T01:05:30;11.32;;;1.60;;
51358;SDS011;37448;51.588;7.248;2022-11-03T01:08:19;11.20;;;1.75;;
51358;SDS011;37448;51.588;7.248;2022-11-03T01:10:49;10.10;;;1.90;;
51358;SDS011;37448;51.588;7.248;2022-11-03T01:13:38;9.55;;;2.40;;
51358;SDS011;37448;51.588;7.248;2022-11-03T01:16:09;11.02;;;1.90;;
51358;SDS011;37448;51.588;7.248;2022-11-03T01:18:39;11.60;;;2.20;;
51358;SDS011;37448;51.588;7.248;2022-11-03T01:21:09;10.30;;;2.33;;
51358;SDS011;37448;51.588;7.248;2022-11-03T01:23:40;11.90;;;2.60;;
51358;SDS011;37448;51.588;7.248;2022-11-03T01:26:11;10.23;;;2.20;;
51358;SDS011;37448;51.588;7.248;2022-11-03T01:28:44;10.60;;;1.90;;
51358;SDS011;37448;51.588;7.248;2022-11-03T01:31:16;13.23;;;2.35;;
51358;SDS011;37448;51.588;7.248;2022-11-03T01:33:52;14.10;;;2.70;;
51358;SDS011;37448;51.588;7.248;2022-11-03T01:36:24;6.57;;;2.10;;
51358;SDS011;37448;51.588;7.248;2022-11-03T01:38:54;13.48;;;2.33;;
51358;SDS011;37448;51.588;7.248;2022-11-03T01:41:26;12.02;;;2.17;;
51358;SDS011;37448;51.588;7.248;2022-11-03T01:44:31;12.98;;;2.75;;
51358;SDS011;37448;51.588;7.248;2022-11-03T01:47:25;7.82;;;1.90;;
51358;SDS011;37448;51.588;7.248;2022-11-03T01:52:35;8.45;;;2.28;;
51358;SDS011;37448;51.588;7.248;2022-11-03T01:55:20;13.13;;;2.75;;
51358;SDS011;37448;51.588;7.248;2022-11-03T01:57:58;16.50;;;2.95;;
51358;SDS011;37448;51.588;7.248;2022-11-03T02:00:32;11.40;;;2.22;;
51358;SDS011;37448;51.588;7.248;2022-11-03T02:03:03;12.57;;;2.00;;
51358;SDS011;37448;51.588;7.248;2022-11-03T02:05:34;14.43;;;2.10;;
51358;SDS011;37448;51.588;7.248;2022-11-03T02:08:16;9.77;;;2.42;;
51358;SDS011;37448;51.588;7.248;2022-11-03T02:10:50;12.05;;;2.88;;
51358;SDS011;37448;51.588;7.248;2022-11-03T02:13:22;12.15;;;2.47;;
51358;SDS011;37448;51.588;7.248;2022-11-03T02:15:56;11.23;;;2.58;;
51358;SDS011;37448;51.588;7.248;2022-11-03T02:18:31;13.20;;;2.33;;
51358;SDS011;37448;51.588;7.248;2022-11-03T02:21:25;9.27;;;2.28;;
51358;SDS011;37448;51.588;7.248;2022-11-03T02:24:05;16.00;;;3.17;;
51358;SDS011;37448;51.588;7.248;2022-11-03T02:26:44;11.02;;;2.38;;
51358;SDS011;37448;51.588;7.248;2022-11-03T02:29:17;9.00;;;1.92;;
51358;SDS011;37448;51.588;7.248;2022-11-03T02:31:48;12.82;;;3.63;;
51358;SDS011;37448;51.588;7.248;2022-11-03T02:34:27;13.82;;;3.13;;
51358;SDS011;37448;51.588;7.248;2022-11-03T02:37:22;16.25;;;2.50;;
51358;SDS011;37448;51.588;7.248;2022-11-03T02:40:02;12.98;;;2.45;;
51358;SDS011;37448;51.588;7.248;2022-11-03T02:42:45;10.75;;;2.03;;
51358;SDS011;37448;51.588;7.248;2022-11-03T02:45:20;11.73;;;3.28;;
51358;SDS011;37448;51.588;7.248;2022-11-03T02:47:54;13.02;;;3.08;;
51358;SDS011;37448;51.588;7.248;2022-11-03T02:50:29;10.48;;;2.00;;
51358;SDS011;37448;51.588;7.248;2022-11-03T03:07:10;12.70;;;2.08;;
51358;SDS011;37448;51.588;7.248;2022-11-03T03:09:47;14.85;;;2.47;;
51358;SDS011;37448;51.588;7.248;2022-11-03T03:12:25;10.45;;;2.20;;
51358;SDS011;37448;51.588;7.248;2022-11-03T03:14:56;9.68;;;2.45;;
51358;SDS011;37448;51.588;7.248;2022-11-03T03:17:43;10.65;;;2.47;;
51358;SDS011;37448;51.588;7.248;2022-11-03T03:20:31;10.93;;;2.55;;
51358;SDS011;37448;51.588;7.248;2022-11-03T03:25:57;12.75;;;1.95;;
51358;SDS011;37448;51.588;7.248;2022-11-03T03:31:06;8.23;;;1.50;;
51358;SDS011;37448;51.588;7.248;2022-11-03T03:33:39;14.45;;;2.47;;
51358;SDS011;37448;51.588;7.248;2022-11-03T03:36:13;12.35;;;2.58;;
51358;SDS011;37448;51.588;7.248;2022-11-03T03:38:47;14.15;;;2.70;;
51358;SDS011;37448;51.588;7.248;2022-11-03T03:41:22;10.77;;;2.20;;
51358;SDS011;37448;51.588;7.248;2022-11-03T03:43:56;12.20;;;2.25;;
51358;SDS011;37448;51.588;7.248;2022-11-03T03:46:30;11.02;;;1.83;;
51358;SDS011;37448;51.588;7.248;2022-11-03T03:49:04;11.30;;;1.92;;
51358;SDS011;37448;51.588;7.248;2022-11-03T03:51:35;13.25;;;1.95;;
51358;SDS011;37448;51.588;7.248;2022-11-03T03:54:06;10.00;;;2.30;;
51358;SDS011;37448;51.588;7.248;2022-11-03T03:56:57;6.43;;;1.63;;
51358;SDS011;37448;51.588;7.248;2022-11-03T03:59:31;14.63;;;3.08;;
51358;SDS011;37448;51.588;7.248;2022-11-03T04:02:02;13.60;;;2.38;;
51358;SDS011;37448;51.588;7.248;2022-11-03T04:04:32;12.10;;;2.92;;
51358;SDS011;37448;51.588;7.248;2022-11-03T04:07:03;12.20;;;2.83;;
51358;SDS011;37448;51.588;7.248;2022-11-03T04:09:52;10.80;;;2.20;;
51358;SDS011;37448;51.588;7.248;2022-11-03T04:12:23;9.25;;;2.25;;
51358;SDS011;37448;51.588;7.248;2022-11-03T04:15:12;11.85;;;2.20;;
51358;SDS011;37448;51.588;7.248;2022-11-03T04:18:00;13.30;;;2.85;;
51358;SDS011;37448;51.588;7.248;2022-11-03T04:20:50;11.25;;;2.10;;
51358;SDS011;37448;51.588;7.248;2022-11-03T04:23:39;12.95;;;2.72;;
51358;SDS011;37448;51.588;7.248;2022-11-03T04:26:10;12.52;;;2.25;;
51358;SDS011;37448;51.588;7.248;2022-11-03T04:28:43;12.70;;;1.80;;
51358;SDS011;37448;51.588;7.248;2022-11-03T04:31:15;11.15;;;2.00;;
51358;SDS011;37448;51.588;7.248;2022-11-03T04:33:47;11.95;;;2.42;;
51358;SDS011;37448;51.588;7.248;2022-11-03T04:36:21;11.90;;;2.00;;
51358;SDS011;37448;51.588;7.248;2022-11-03T04:38:53;13.60;;;2.38;;
51358;SDS011;37448;51.588;7.248;2022-11-03T04:41:24;8.85;;;1.80;;
51358;SDS011;37448;51.588;7.248;2022-11-03T04:43:57;9.57;;;2.72;;
51358;SDS011;37448;51.588;7.248;2022-11-03T04:46:28;8.60;;;2.15;;
51358;SDS011;37448;51.588;7.248;2022-11-03T04:49:00;13.07;;;2.17;;
51358;SDS011;37448;51.588;7.248;2022-11-03T04:51:33;14.77;;;2.47;;
51358;SDS011;37448;51.588;7.248;2022-11-03T04:54:14;15.38;;;2.40;;
51358;SDS011;37448;51.588;7.248;2022-11-03T04:56:47;13.98;;;2.50;;
51358;SDS011;37448;51.588;7.248;2022-11-03T04:59:18;15.35;;;2.33;;
51358;SDS011;37448;51.588;7.248;2022-11-03T05:01:48;11.57;;;2.60;;
51358;SDS011;37448;51.588;7.248;2022-11-03T05:04:18;12.02;;;2.40;;
51358;SDS011;37448;51.588;7.248;2022-11-03T05:06:50;9.88;;;1.70;;
51358;SDS011;37448;51.588;7.248;2022-11-03T05:09:23;10.05;;;2.50;;
51358;SDS011;37448;51.588;7.248;2022-11-03T05:11:58;13.65;;;1.80;;
51358;SDS011;37448;51.588;7.248;2022-11-03T05:14:28;13.20;;;3.45;;
51358;SDS011;37448;51.588;7.248;2022-11-03T05:17:00;11.50;;;2.45;;
51358;SDS011;37448;51.588;7.248;2022-11-03T05:19:32;9.65;;;2.03;;
51358;SDS011;37448;51.588;7.248;2022-11-03T05:22:11;15.15;;;2.60;;
51358;SDS011;37448;51.588;7.248;2022-11-03T05:24:46;12.52;;;2.40;;
51358;SDS011;37448;51.588;7.248;2022-11-03T05:27:25;9.93;;;1.73;;
51358;SDS011;37448;51.588;7.248;2022-11-03T05:29:56;10.70;;;2.40;;
51358;SDS011;37448;51.588;7.248;2022-11-03T05:32:29;9.37;;;2.00;;
51358;SDS011;37448;51.588;7.248;2022-11-03T05:35:02;10.15;;;1.85;;
51358;SDS011;37448;51.588;7.248;2022-11-03T05:37:33;10.05;;;2.22;;
51358;SDS011;37448;51.588;7.248;2022-11-03T05:40:21;12.10;;;2.88;;
51358;SDS011;37448;51.588;7.248;2022-11-03T05:42:55;11.80;;;1.98;;
51358;SDS011;37448;51.588;7.248;2022-11-03T05:45:31;10.65;;;2.08;;
51358;SDS011;37448;51.588;7.248;2022-11-03T05:48:09;13.73;;;2.25;;
51358;SDS011;37448;51.588;7.248;2022-11-03T05:50:45;11.30;;;2.10;;
51358;SDS011;37448;51.588;7.248;2022-11-03T05:53:18;9.45;;;2.28;;
51358;SDS011;37448;51.588;7.248;2022-11-03T05:55:52;10.95;;;2.15;;
51358;SDS011;37448;51.588;7.248;2022-11-03T05:58:30;11.82;;;2.55;;
51358;SDS011;37448;51.588;7.248;2022-11-03T06:03:45;13.13;;;2.42;;
51358;SDS011;37448;51.588;7.248;2022-11-03T06:06:32;10.40;;;2.08;;
51358;SDS011;37448;51.588;7.248;2022-11-03T06:09:18;10.50;;;2.50;;
51358;SDS011;37448;51.588;7.248;2022-11-03T06:11:52;11.95;;;2.45;;
51358;SDS011;37448;51.588;7.248;2022-11-03T06:14:25;16.15;;;3.35;;
51358;SDS011;37448;51.588;7.248;2022-11-03T06:17:00;12.98;;;2.17;;
51358;SDS011;37448;51.588;7.248;2022-11-03T06:19:38;10.75;;;2.20;;
51358;SDS011;37448;51.588;7.248;2022-11-03T06:22:31;9.60;;;2.20;;
51358;SDS011;37448;51.588;7.248;2022-11-03T06:25:21;11.20;;;2.25;;
51358;SDS011;37448;51.588;7.248;2022-11-03T06:27:59;11.55;;;2.45;;
51358;SDS011;37448;51.588;7.248;2022-11-03T06:30:34;11.23;;;2.78;;
51358;SDS011;37448;51.588;7.248;2022-11-03T06:36:00;11.20;;;1.90;;
51358;SDS011;37448;51.588;7.248;2022-11-03T06:38:32;14.40;;;2.40;;
51358;SDS011;37448;51.588;7.248;2022-11-03T06:41:04;6.95;;;1.65;;
51358;SDS011;37448;51.588;7.248;2022-11-03T06:43:36;8.80;;;2.33;;
51358;SDS011;37448;51.588;7.248;2022-11-03T06:46:14;9.60;;;2.38;;
51358;SDS011;37448;51.588;7.248;2022-11-03T06:48:53;16.83;;;2.67;;
51358;SDS011;37448;51.588;7.248;2022-11-03T06:51:27;15.98;;;3.13;;
51358;SDS011;37448;51.588;7.248;2022-11-03T06:53:58;10.88;;;2.25;;
51358;SDS011;37448;51.588;7.248;2022-11-03T06:56:30;11.32;;;1.98;;
51358;SDS011;37448;51.588;7.248;2022-11-03T06:59:07;10.45;;;2.47;;
51358;SDS011;37448;51.588;7.248;2022-11-03T07:01:38;13.23;;;2.35;;
51358;SDS011;37448;51.588;7.248;2022-11-03T07:04:13;12.15;;;2.10;;
51358;SDS011;37448;51.588;7.248;2022-11-03T07:06:47;12.60;;;2.30;;
51358;SDS011;37448;51.588;7.248;2022-11-03T07:09:22;8.27;;;2.65;;
51358;SDS011;37448;51.588;7.248;2022-11-03T07:11:57;11.02;;;2.40;;
51358;SDS011;37448;51.588;7.248;2022-11-03T07:14:30;12.00;;;2.38;;
51358;SDS011;37448;51.588;7.248;2022-11-03T07:17:03;11.88;;;2.95;;
51358;SDS011;37448;51.588;7.248;2022-11-03T07:19:37;9.32;;;1.92;;
51358;SDS011;37448;51.588;7.248;2022-11-03T07:22:22;13.30;;;2.35;;
51358;SDS011;37448;51.588;7.248;2022-11-03T07:24:55;11.85;;;2.25;;
51358;SDS011;37448;51.588;7.248;2022-11-03T07:27:30;14.20;;;2.47;;
51358;SDS011;37448;51.588;7.248;2022-11-03T07:30:20;10.27;;;1.95;;
51358;SDS011;37448;51.588;7.248;2022-11-03T07:32:52;10.13;;;1.80;;
51358;SDS011;37448;51.588;7.248;2022-11-03T07:38:08;14.55;;;2.17;;
51358;SDS011;37448;51.588;7.248;2022-11-03T07:40:41;8.75;;;1.75;;
51358;SDS011;37448;51.588;7.248;2022-11-03T07:43:18;10.80;;;1.95;;
51358;SDS011;37448;51.588;7.248;2022-11-03T07:45:54;8.07;;;2.38;;
51358;SDS011;37448;51.588;7.248;2022-11-03T07:51:22;10.93;;;2.05;;
51358;SDS011;37448;51.588;7.248;2022-11-03T07:54:19;8.45;;;1.77;;
51358;SDS011;37448;51.588;7.248;2022-11-03T07:56:56;14.90;;;2.30;;
51358;SDS011;37448;51.588;7.248;2022-11-03T07:59:30;11.52;;;1.83;;
51358;SDS011;37448;51.588;7.248;2022-11-03T08:02:01;9.57;;;1.90;;
51358;SDS011;37448;51.588;7.248;2022-11-03T08:04:53;9.82;;;2.00;;
51358;SDS011;37448;51.588;7.248;2022-11-03T08:07:24;9.23;;;1.50;;
51358;SDS011;37448;51.588;7.248;2022-11-03T08:09:55;9.90;;;2.25;;
51358;SDS011;37448;51.588;7.248;2022-11-03T08:12:25;9.35;;;2.15;;
51358;SDS011;37448;51.588;7.248;2022-11-03T08:14:55;8.95;;;2.10;;
51358;SDS011;37448;51.588;7.248;2022-11-03T08:17:26;12.55;;;2.00;;
51358;SDS011;37448;51.588;7.248;2022-11-03T08:19:56;10.95;;;2.03;;
51358;SDS011;37448;51.588;7.248;2022-11-03T08:22:27;9.25;;;1.95;;
51358;SDS011;37448;51.588;7.248;2022-11-03T08:24:57;8.32;;;1.70;;
51358;SDS011;37448;51.588;7.248;2022-11-03T08:27:28;8.40;;;1.95;;
51358;SDS011;37448;51.588;7.248;2022-11-03T08:29:58;9.57;;;2.10;;
51358;SDS011;37448;51.588;7.248;2022-11-03T08:32:28;10.02;;;1.88;;
51358;SDS011;37448;51.588;7.248;2022-11-03T08:34:59;10.48;;;2.40;;
51358;SDS011;37448;51.588;7.248;2022-11-03T08:37:29;9.07;;;1.70;;
51358;SDS011;37448;51.588;7.248;2022-11-03T08:39:59;10.38;;;2.15;;
51358;SDS011;37448;51.588;7.248;2022-11-03T08:42:30;9.82;;;2.17;;
51358;SDS011;37448;51.588;7.248;2022-11-03T08:45:00;11.95;;;2.15;;
51358;SDS011;37448;51.588;7.248;2022-11-03T08:47:30;9.15;;;2.42;;
51358;SDS011;37448;51.588;7.248;2022-11-03T08:50:01;9.13;;;2.00;;
51358;SDS011;37448;51.588;7.248;2022-11-03T08:52:32;8.80;;;2.00;;
51358;SDS011;37448;51.588;7.248;2022-11-03T08:55:02;11.65;;;2.53;;
51358;SDS011;37448;51.588;7.248;2022-11-03T08:57:33;8.50;;;1.73;;
51358;SDS011;37448;51.588;7.248;2022-11-03T09:00:04;12.13;;;3.15;;
51358;SDS011;37448;51.588;7.248;2022-11-03T09:02:35;7.97;;;2.08;;
51358;SDS011;37448;51.588;7.248;2022-11-03T09:05:05;11.45;;;2.15;;
51358;SDS011;37448;51.588;7.248;2022-11-03T09:07:37;11.27;;;1.95;;
51358;SDS011;37448;51.588;7.248;2022-11-03T09:10:09;10.05;;;2.28;;
51358;SDS011;37448;51.588;7.248;2022-11-03T09:12:40;8.73;;;2.00;;
51358;SDS011;37448;51.588;7.248;2022-11-03T09:15:10;10.35;;;2.00;;
51358;SDS011;37448;51.588;7.248;2022-11-03T09:17:41;9.18;;;1.75;;
51358;SDS011;37448;51.588;7.248;2022-11-03T09:20:11;9.63;;;1.92;;
51358;SDS011;37448;51.588;7.248;2022-11-03T09:22:42;7.68;;;1.80;;
51358;SDS011;37448;51.588;7.248;2022-11-03T09:25:13;8.95;;;1.98;;
51358;SDS011;37448;51.588;7.248;2022-11-03T09:27:43;6.38;;;2.00;;
51358;SDS011;37448;51.588;7.248;2022-11-03T09:30:14;12.18;;;2.08;;
51358;SDS011;37448;51.588;7.248;2022-11-03T09:32:44;7.80;;;1.88;;
51358;SDS011;37448;51.588;7.248;2022-11-03T09:35:15;8.23;;;1.75;;
51358;SDS011;37448;51.588;7.248;2022-11-03T09:37:46;9.77;;;1.70;;
51358;SDS011;37448;51.588;7.248;2022-11-03T09:40:16;12.25;;;1.90;;
51358;SDS011;37448;51.588;7.248;2022-11-03T09:42:48;10.05;;;2.08;;
51358;SDS011;37448;51.588;7.248;2022-11-03T09:45:18;8.40;;;1.52;;
51358;SDS011;37448;51.588;7.248;2022-11-03T09:47:48;10.32;;;2.17;;
51358;SDS011;37448;51.588;7.248;2022-11-03T09:50:19;7.30;;;1.80;;
51358;SDS011;37448;51.588;7.248;2022-11-03T09:52:50;8.77;;;1.67;;
51358;SDS011;37448;51.588;7.248;2022-11-03T09:55:24;8.75;;;1.85;;
51358;SDS011;37448;51.588;7.248;2022-11-03T09:58:08;9.05;;;2.17;;
51358;SDS011;37448;51.588;7.248;2022-11-03T10:00:41;9.18;;;1.60;;
51358;SDS011;37448;51.588;7.248;2022-11-03T10:03:13;6.22;;;1.75;;
51358;SDS011;37448;51.588;7.248;2022-11-03T10:05:49;8.75;;;1.75;;
51358;SDS011;37448;51.588;7.248;2022-11-03T10:08:22;7.50;;;1.85;;
51358;SDS011;37448;51.588;7.248;2022-11-03T10:10:55;7.30;;;1.58;;
51358;SDS011;37448;51.588;7.248;2022-11-03T10:16:20;7.90;;;2.17;;
51358;SDS011;37448;51.588;7.248;2022-11-03T10:18:53;7.93;;;1.80;;
51358;SDS011;37448;51.588;7.248;2022-11-03T10:21:28;9.93;;;1.50;;
51358;SDS011;37448;51.588;7.248;2022-11-03T10:24:00;10.18;;;1.70;;
51358;SDS011;37448;51.588;7.248;2022-11-03T10:26:41;8.88;;;1.60;;
51358;SDS011;37448;51.588;7.248;2022-11-03T10:29:20;6.43;;;1.45;;
51358;SDS011;37448;51.588;7.248;2022-11-03T10:31:55;8.90;;;1.67;;
51358;SDS011;37448;51.588;7.248;2022-11-03T10:34:34;9.50;;;1.58;;
51358;SDS011;37448;51.588;7.248;2022-11-03T10:37:24;10.02;;;1.63;;
51358;SDS011;37448;51.588;7.248;2022-11-03T10:39:56;7.85;;;1.80;;
51358;SDS011;37448;51.588;7.248;2022-11-03T10:42:29;8.18;;;1.23;;
51358;SDS011;37448;51.588;7.248;2022-11-03T10:45:10;5.50;;;1.40;;
51358;SDS011;37448;51.588;7.248;2022-11-03T10:47:59;10.10;;;2.28;;
51358;SDS011;37448;51.588;7.248;2022-11-03T10:50:31;7.28;;;1.55;;
51358;SDS011;37448;51.588;7.248;2022-11-03T10:53:02;6.88;;;1.40;;
51358;SDS011;37448;51.588;7.248;2022-11-03T10:55:32;7.80;;;1.48;;
51358;SDS011;37448;51.588;7.248;2022-11-03T10:58:02;8.35;;;1.63;;
51358;SDS011;37448;51.588;7.248;2022-11-03T11:00:33;9.40;;;1.80;;
51358;SDS011;37448;51.588;7.248;2022-11-03T11:03:04;5.20;;;1.52;;
51358;SDS011;37448;51.588;7.248;2022-11-03T11:05:35;6.85;;;1.30;;
51358;SDS011;37448;51.588;7.248;2022-11-03T11:08:07;5.70;;;1.75;;
51358;SDS011;37448;51.588;7.248;2022-11-03T11:10:38;8.32;;;1.80;;
51358;SDS011;37448;51.588;7.248;2022-11-03T11:15:56;8.52;;;1.40;;
51358;SDS011;37448;51.588;7.248;2022-11-03T11:23:53;8.20;;;1.60;;
51358;SDS011;37448;51.588;7.248;2022-11-03T11:31:43;5.43;;;1.60;;
51358;SDS011;37448;51.588;7.248;2022-11-03T11:37:05;7.32;;;1.50;;
51358;SDS011;37448;51.588;7.248;2022-11-03T11:42:13;5.60;;;1.35;;
51358;SDS011;37448;51.588;7.248;2022-11-03T11:44:52;4.65;;;1.13;;
51358;SDS011;37448;51.588;7.248;2022-11-03T11:55:33;4.57;;;1.13;;
51358;SDS011;37448;51.588;7.248;2022-11-03T11:58:14;5.00;;;1.98;;
51358;SDS011;37448;51.588;7.248;2022-11-03T12:00:50;9.98;;;1.30;;
51358;SDS011;37448;51.588;7.248;2022-11-03T12:03:24;6.25;;;1.33;;
51358;SDS011;37448;51.588;7.248;2022-11-03T12:05:58;5.43;;;1.27;;
51358;SDS011;37448;51.588;7.248;2022-11-03T12:08:29;6.15;;;1.33;;
51358;SDS011;37448;51.588;7.248;2022-11-03T12:11:01;4.93;;;1.17;;
51358;SDS011;37448;51.588;7.248;2022-11-03T12:13:49;7.13;;;1.52;;
51358;SDS011;37448;51.588;7.248;2022-11-03T12:16:31;4.05;;;0.90;;
51358;SDS011;37448;51.588;7.248;2022-11-03T12:22:09;5.25;;;1.00;;
51358;SDS011;37448;51.588;7.248;2022-11-03T12:24:56;5.95;;;1.10;;
51358;SDS011;37448;51.588;7.248;2022-11-03T12:29:58;6.13;;;1.23;;
51358;SDS011;37448;51.588;7.248;2022-11-03T12:32:31;6.32;;;1.20;;
51358;SDS011;37448;51.588;7.248;2022-11-03T12:35:02;7.80;;;1.48;;
51358;SDS011;37448;51.588;7.248;2022-11-03T12:37:34;7.15;;;1.35;;
51358;SDS011;37448;51.588;7.248;2022-11-03T12:40:05;8.20;;;1.38;;
51358;SDS011;37448;51.588;7.248;2022-11-03T12:42:36;7.22;;;1.10;;
51358;SDS011;37448;51.588;7.248;2022-11-03T12:45:06;7.43;;;1.35;;
51358;SDS011;37448;51.588;7.248;2022-11-03T12:47:37;5.57;;;1.42;;
51358;SDS011;37448;51.588;7.248;2022-11-03T12:50:08;7.30;;;1.10;;
51358;SDS011;37448;51.588;7.248;2022-11-03T12:52:38;4.93;;;1.05;;
51358;SDS011;37448;51.588;7.248;2022-11-03T12:55:09;7.35;;;1.60;;
51358;SDS011;37448;51.588;7.248;2022-11-03T12:57:39;4.10;;;1.85;;
51358;SDS011;37448;51.588;7.248;2022-11-03T13:00:10;5.32;;;1.10;;
51358;SDS011;37448;51.588;7.248;2022-11-03T13:02:41;7.90;;;1.50;;
51358;SDS011;37448;51.588;7.248;2022-11-03T13:05:11;4.90;;;1.10;;
51358;SDS011;37448;51.588;7.248;2022-11-03T13:07:44;5.93;;;1.33;;
51358;SDS011;37448;51.588;7.248;2022-11-03T13:10:14;7.47;;;1.70;;
51358;SDS011;37448;51.588;7.248;2022-11-03T13:12:45;3.65;;;1.00;;
51358;SDS011;37448;51.588;7.248;2022-11-03T13:15:16;8.45;;;1.45;;
51358;SDS011;37448;51.588;7.248;2022-11-03T13:17:46;4.75;;;1.15;;
51358;SDS011;37448;51.588;7.248;2022-11-03T13:20:16;3.08;;;0.90;;
51358;SDS011;37448;51.588;7.248;2022-11-03T13:22:47;6.10;;;1.05;;
51358;SDS011;37448;51.588;7.248;2022-11-03T13:25:17;5.57;;;1.30;;
51358;SDS011;37448;51.588;7.248;2022-11-03T13:27:48;5.53;;;1.25;;
51358;SDS011;37448;51.588;7.248;2022-11-03T13:30:23;3.85;;;1.05;;
51358;SDS011;37448;51.588;7.248;2022-11-03T13:32:55;4.03;;;1.17;;
51358;SDS011;37448;51.588;7.248;2022-11-03T13:35:25;5.15;;;1.42;;
51358;SDS011;37448;51.588;7.248;2022-11-03T13:37:55;8.20;;;1.80;;
51358;SDS011;37448;51.588;7.248;2022-11-03T13:40:26;6.30;;;1.23;;
51358;SDS011;37448;51.588;7.248;2022-11-03T13:42:56;6.32;;;1.60;;
51358;SDS011;37448;51.588;7.248;2022-11-03T13:45:26;7.25;;;1.63;;
51358;SDS011;37448;51.588;7.248;2022-11-03T13:47:58;5.88;;;1.30;;
51358;SDS011;37448;51.588;7.248;2022-11-03T13:50:29;7.95;;;1.40;;
51358;SDS011;37448;51.588;7.248;2022-11-03T13:52:59;7.55;;;1.60;;
51358;SDS011;37448;51.588;7.248;2022-11-03T13:55:29;5.55;;;1.50;;
51358;SDS011;37448;51.588;7.248;2022-11-03T13:58:00;6.70;;;1.42;;
51358;SDS011;37448;51.588;7.248;2022-11-03T14:00:30;6.53;;;1.30;;
51358;SDS011;37448;51.588;7.248;2022-11-03T14:03:00;3.67;;;1.23;;
51358;SDS011;37448;51.588;7.248;2022-11-03T14:05:31;7.60;;;1.88;;
51358;SDS011;37448;51.588;7.248;2022-11-03T14:08:01;6.35;;;1.38;;
51358;SDS011;37448;51.588;7.248;2022-11-03T14:10:31;6.53;;;1.63;;
51358;SDS011;37448;51.588;7.248;2022-11-03T14:13:02;3.55;;;1.50;;
51358;SDS011;37448;51.588;7.248;2022-11-03T14:15:32;5.22;;;1.45;;
51358;SDS011;37448;51.588;7.248;2022-11-03T14:18:03;5.68;;;2.15;;
51358;SDS011;37448;51.588;7.248;2022-11-03T14:20:33;5.35;;;2.13;;
51358;SDS011;37448;51.588;7.248;2022-11-03T14:23:04;5.55;;;1.80;;
51358;SDS011;37448;51.588;7.248;2022-11-03T14:25:34;6.18;;;1.90;;
51358;SDS011;37448;51.588;7.248;2022-11-03T14:28:05;7.38;;;2.53;;
51358;SDS011;37448;51.588;7.248;2022-11-03T14:30:35;7.38;;;2.42;;
51358;SDS011;37448;51.588;7.248;2022-11-03T14:33:05;7.85;;;1.90;;
51358;SDS011;37448;51.588;7.248;2022-11-03T14:35:35;7.93;;;1.95;;
51358;SDS011;37448;51.588;7.248;2022-11-03T14:38:06;5.78;;;1.83;;
51358;SDS011;37448;51.588;7.248;2022-11-03T14:40:37;6.72;;;1.85;;
51358;SDS011;37448;51.588;7.248;2022-11-03T14:43:26;6.78;;;2.30;;
51358;SDS011;37448;51.588;7.248;2022-11-03T14:45:57;7.85;;;1.95;;
51358;SDS011;37448;51.588;7.248;2022-11-03T14:48:27;6.40;;;1.60;;
51358;SDS011;37448;51.588;7.248;2022-11-03T14:50:57;8.82;;;1.80;;
51358;SDS011;37448;51.588;7.248;2022-11-03T14:53:28;7.40;;;2.45;;
51358;SDS011;37448;51.588;7.248;2022-11-03T14:55:58;4.05;;;1.48;;
51358;SDS011;37448;51.588;7.248;2022-11-03T14:58:28;4.65;;;1.40;;
51358;SDS011;37448;51.588;7.248;2022-11-03T15:00:59;6.55;;;1.80;;
51358;SDS011;37448;51.588;7.248;2022-11-03T15:03:29;7.45;;;1.83;;
51358;SDS011;37448;51.588;7.248;2022-11-03T15:05:59;7.25;;;1.63;;
51358;SDS011;37448;51.588;7.248;2022-11-03T15:08:30;5.07;;;1.70;;
51358;SDS011;37448;51.588;7.248;2022-11-03T15:11:01;6.25;;;1.65;;
51358;SDS011;37448;51.588;7.248;2022-11-03T15:13:36;4.18;;;1.60;;
51358;SDS011;37448;51.588;7.248;2022-11-03T15:16:07;4.32;;;1.63;;
51358;SDS011;37448;51.588;7.248;2022-11-03T15:18:37;5.63;;;1.98;;
51358;SDS011;37448;51.588;7.248;2022-11-03T15:21:08;7.15;;;1.90;;
51358;SDS011;37448;51.588;7.248;2022-11-03T15:23:38;6.38;;;1.73;;
51358;SDS011;37448;51.588;7.248;2022-11-03T15:26:09;4.57;;;1.95;;
51358;SDS011;37448;51.588;7.248;2022-11-03T15:28:41;7.18;;;1.60;;
51358;SDS011;37448;51.588;7.248;2022-11-03T15:31:11;7.53;;;1.70;;
51358;SDS011;37448;51.588;7.248;2022-11-03T15:33:42;5.82;;;1.80;;
51358;SDS011;37448;51.588;7.248;2022-11-03T15:36:12;6.82;;;1.88;;
51358;SDS011;37448;51.588;7.248;2022-11-03T15:38:42;7.93;;;1.70;;
51358;SDS011;37448;51.588;7.248;2022-11-03T15:41:13;5.63;;;1.92;;
51358;SDS011;37448;51.588;7.248;2022-11-03T15:43:46;11.50;;;2.53;;
51358;SDS011;37448;51.588;7.248;2022-11-03T15:46:18;5.47;;;1.83;;
51358;SDS011;37448;51.588;7.248;2022-11-03T15:48:48;11.32;;;2.22;;
51358;SDS011;37448;51.588;7.248;2022-11-03T15:51:19;8.18;;;1.75;;
51358;SDS011;37448;51.588;7.248;2022-11-03T15:53:49;8.93;;;2.00;;
51358;SDS011;37448;51.588;7.248;2022-11-03T15:56:19;10.18;;;2.40;;
51358;SDS011;37448;51.588;7.248;2022-11-03T15:58:50;10.93;;;3.53;;
51358;SDS011;37448;51.588;7.248;2022-11-03T16:01:20;10.25;;;2.70;;
51358;SDS011;37448;51.588;7.248;2022-11-03T16:03:50;8.45;;;2.58;;
51358;SDS011;37448;51.588;7.248;2022-11-03T16:06:21;8.40;;;3.22;;
51358;SDS011;37448;51.588;7.248;2022-11-03T16:08:51;9.73;;;3.28;;
51358;SDS011;37448;51.588;7.248;2022-11-03T16:11:21;8.43;;;2.78;;
51358;SDS011;37448;51.588;7.248;2022-11-03T16:13:52;9.95;;;2.60;;
51358;SDS011;37448;51.588;7.248;2022-11-03T16:16:22;6.90;;;2.85;;
51358;SDS011;37448;51.588;7.248;2022-11-03T16:18:52;8.73;;;2.72;;
51358;SDS011;37448;51.588;7.248;2022-11-03T16:21:23;7.90;;;2.45;;
51358;SDS011;37448;51.588;7.248;2022-11-03T16:23:53;6.25;;;2.97;;
51358;SDS011;37448;51.588;7.248;2022-11-03T16:26:24;9.25;;;2.42;;
51358;SDS011;37448;51.588;7.248;2022-11-03T16:28:54;7.05;;;2.60;;